TimeEST,TemperatureF,Dew PointF,Humidity,Sea Level PressureIn,VisibilityMPH,Wind Direction,Wind SpeedMPH,Gust SpeedMPH,PrecipitationIn,Events,Conditions,WindDirDegrees,DateUTC
12:53 AM,52.0,44.1,74,30.31,10.0,North,17.3,24.2,N/A,,Overcast,360,2012-11-19 05:53:00
1:53 AM,51.1,43.0,74,30.31,10.0,North,18.4,24.2,N/A,,Overcast,10,2012-11-19 06:53:00
2:53 AM,51.1,43.0,74,30.30,10.0,North,15.0,21.9,N/A,,Overcast,10,2012-11-19 07:53:00
3:53 AM,51.1,43.0,74,30.28,10.0,North,13.8,-,N/A,,Overcast,10,2012-11-19 08:53:00
4:53 AM,51.1,43.0,74,30.28,10.0,North,17.3,24.2,N/A,,Overcast,10,2012-11-19 09:53:00
5:53 AM,51.1,43.0,74,30.29,10.0,North,15.0,-,N/A,,Overcast,10,2012-11-19 10:53:00
6:53 AM,51.1,43.0,74,30.29,10.0,North,17.3,21.9,N/A,,Overcast,360,2012-11-19 11:53:00
7:53 AM,51.1,43.0,74,30.30,10.0,North,15.0,21.9,N/A,,Overcast,10,2012-11-19 12:53:00
8:53 AM,51.1,44.1,77,30.30,10.0,North,12.7,-,N/A,,Overcast,360,2012-11-19 13:53:00
9:53 AM,52.0,44.1,74,30.29,10.0,North,15.0,-,N/A,,Overcast,10,2012-11-19 14:53:00
10:53 AM,54.0,45.0,72,30.27,10.0,North,13.8,26.5,N/A,,Overcast,10,2012-11-19 15:53:00
11:53 AM,55.0,46.0,72,30.25,10.0,North,13.8,19.6,N/A,,Overcast,10,2012-11-19 16:53:00
12:53 PM,55.9,46.0,69,30.23,10.0,North,16.1,20.7,N/A,,Overcast,360,2012-11-19 17:53:00
1:53 PM,55.0,46.0,72,30.21,10.0,North,15.0,-,N/A,,Overcast,350,2012-11-19 18:53:00
2:53 PM,55.9,46.0,69,30.20,10.0,North,15.0,25.3,N/A,,Overcast,360,2012-11-19 19:53:00
3:53 PM,55.9,46.0,69,30.21,10.0,North,13.8,-,N/A,,Overcast,360,2012-11-19 20:53:00
4:41 PM,55.4,46.4,72,30.21,10.0,North,12.7,20.7,N/A,,Overcast,10,2012-11-19 21:41:00
4:49 PM,55.4,46.4,72,30.21,10.0,North,12.7,20.7,N/A,,Overcast,350,2012-11-19 21:49:00
4:53 PM,55.0,46.0,72,30.21,10.0,North,13.8,-,N/A,,Overcast,360,2012-11-19 21:53:00
5:19 PM,53.6,44.6,72,30.21,10.0,North,12.7,-,N/A,,Overcast,360,2012-11-19 22:19:00
5:37 PM,53.6,44.6,72,30.21,10.0,North,15.0,21.9,N/A,,Overcast,350,2012-11-19 22:37:00
5:50 PM,53.6,44.6,72,30.22,10.0,North,12.7,-,N/A,,Overcast,360,2012-11-19 22:50:00
5:53 PM,54.0,45.0,72,30.22,10.0,North,11.5,-,N/A,,Overcast,360,2012-11-19 22:53:00
6:20 PM,53.6,44.6,72,30.22,10.0,North,10.4,-,N/A,,Mostly Cloudy,360,2012-11-19 23:20:00
6:53 PM,53.1,45.0,74,30.22,10.0,North,12.7,-,N/A,,Overcast,10,2012-11-19 23:53:00
7:53 PM,53.1,45.0,74,30.21,10.0,North,11.5,-,N/A,,Overcast,360,2012-11-20 00:53:00
8:53 PM,52.0,45.0,77,30.21,10.0,North,12.7,-,N/A,,Overcast,10,2012-11-20 01:53:00
9:53 PM,52.0,44.1,74,30.20,10.0,North,9.2,-,N/A,,Overcast,10,2012-11-20 02:53:00
10:53 PM,51.1,44.1,77,30.18,10.0,NNE,11.5,-,N/A,,Overcast,30,2012-11-20 03:53:00
11:53 PM,51.1,44.1,77,30.17,10.0,North,10.4,-,N/A,,Overcast,360,2012-11-20 04:53:00